Latest Weather Observations for Mount Baw Baw

IDV60801

Issued at 7:35 pm EDT Thursday 23 October 2014 (issued every 30 minutes, with the page automatically refreshed every 10 minutes)

About weather observations | Map of weather stations | Latest weather observations for VIC | Other Formats
Station Details ID: 085291 Name: MOUNT BAW BAW Lat: -37.84 Lon: 146.27 Height: 1561.0 m
Data from the previous 72 hours. | See also: Recent months at Mount Baw Baw
Date/Time
EDT
Temp
°C
App
Temp
°C
Dew
Point
Rel
Hum
%
Delta-T
°C
Wind Press
QNH
hPa
Press
MSL
hPa
Rain
since 9 am
mm
Dir
 
Spd
km/h
Gust
km/h
Spd
kts
Gust
kts
23/07:30pm 12.5 10.2 7.4 71 2.7 NE 9 17 - 9 - - 0.0
23/07:00pm 13.2 11.3 7.4 68 3.1 ENE 7 13 - 7 - - 0.0
23/06:30pm 14.2 12.4 7.9 66 3.4 E 7 13 - 7 - - 0.0
23/06:00pm 15.3 13.7 8.8 65 3.6 E 7 11 - 6 - - 0.0
23/05:30pm 15.8 14.6 9.7 67 3.4 ESE 6 9 - 5 - - 0.0
23/05:00pm 16.5 15.4 9.9 65 3.8 ESE 6 11 - 6 - - 0.0
23/04:30pm 16.1 15.1 10.2 68 3.4 W 6 11 - 6 - - 0.0
23/04:00pm 16.9 16.6 10.1 64 3.9 SE 2 7 - 4 - - 0.0
23/03:30pm 16.5 15.4 10.1 66 3.6 SSE 6 13 - 7 - - 0.0
23/03:00pm 16.2 15.6 10.3 68 3.4 SE 4 9 - 5 - - 0.0
23/02:30pm 16.9 15.7 10.3 65 3.8 S 7 15 - 8 - - 0.0
23/02:00pm 18.2 16.8 9.0 55 5.2 W 6 15 - 8 - - 0.0
23/01:30pm 18.4 16.5 10.5 60 4.6 WSW 11 19 - 10 - - 0.0
23/01:00pm 18.0 16.3 9.9 59 4.6 WSW 9 15 - 8 - - 0.0
23/12:30pm 19.2 17.2 8.5 50 6.0 WNW 9 15 - 8 - - 0.0
23/12:00pm 17.7 15.0 7.2 50 5.7 WSW 11 19 - 10 - - 0.0
23/11:30am 17.0 14.0 7.9 55 5.0 WSW 13 20 - 11 - - 0.0
23/11:00am 17.1 14.5 6.3 49 5.8 WSW 9 17 - 9 - - 0.0
23/10:30am 16.6 14.2 7.0 53 5.2 WNW 9 17 - 9 - - 0.0
23/10:00am 16.9 14.8 8.1 56 4.8 WSW 9 17 - 9 - - 0.0
23/09:30am 16.0 13.7 7.5 57 4.6 W 9 17 - 9 - - 0.0
23/09:00am 15.6 13.8 7.9 60 4.2 W 7 13 - 7 - - 0.0
23/08:30am 14.6 12.7 7.4 62 3.9 NNW 7 13 - 7 - - 0.0
23/08:00am 14.2 11.9 7.3 63 3.7 N 9 15 - 8 - - 0.0
23/07:30am 13.8 11.4 6.9 63 3.6 N 9 13 - 7 - - 0.0
23/07:00am 13.3 10.3 6.2 62 3.7 N 11 19 - 10 - - 0.0
23/06:30am 12.9 9.9 6.0 63 3.6 N 11 20 - 11 - - 0.0
23/06:00am 12.8 9.8 6.2 64 3.4 N 11 19 - 10 - - 0.0
23/05:30am 12.9 10.0 6.3 64 3.4 N 11 19 - 10 - - 0.0
23/05:00am 13.1 10.5 6.0 62 3.7 N 9 17 - 9 - - 0.0
23/04:30am 13.1 10.3 5.3 59 4.0 N 9 17 - 9 - - 0.0
23/04:00am 13.5 10.5 4.1 53 4.7 N 9 13 - 7 - - 0.0
23/03:30am 13.1 10.7 5.3 59 4.0 NNE 7 13 - 7 - - 0.0
23/03:00am 12.8 10.8 7.3 69 2.9 N 7 11 - 6 - - 0.0
23/02:30am 12.9 11.2 7.4 69 2.9 W 6 7 - 4 - - 0.0
23/02:00am 12.4 10.5 9.1 80 1.8 SW 9 11 - 6 - - 0.0
23/01:30am 9.6 7.0 9.5 99 0.1 SW 13 19 - 10 - - 0.0
23/01:00am 11.9 9.1 8.4 79 1.9 SSW 13 24 - 13 - - 0.0
23/12:30am 13.4 11.1 7.6 68 3.1 WNW 9 19 - 10 - - 0.0
23/12:00am 13.3 10.4 8.0 70 2.9 WNW 13 22 - 12 - - 0.0
 
Date/Time
EDT
Temp
°C
App
Temp
°C
Dew
Point
Rel
Hum
%
Delta-T
°C
Wind Press
QNH
hPa
Press
MSL
hPa
Rain
since 9 am
mm
Dir
 
Spd
km/h
Gust
km/h
Spd
kts
Gust
kts
22/11:30pm 13.6 11.2 7.2 65 3.4 NW 9 15 - 8 - - 0.0
22/11:00pm 13.6 11.3 7.4 66 3.3 W 9 17 - 9 - - 0.0
22/10:30pm 13.2 8.8 6.5 64 3.5 SW 19 24 - 13 - - 0.0
22/10:00pm 15.7 12.6 0.3 35 7.2 NNW 6 7 - 4 - - 0.0
22/09:30pm 15.1 12.9 5.3 52 5.1 NE 6 7 - 4 - - 0.0
22/09:00pm 15.4 13.5 6.9 57 4.5 ENE 6 9 - 5 - - 0.0
22/08:30pm 15.2 13.5 7.5 60 4.2 ENE 6 9 - 5 - - 0.0
22/08:00pm 15.4 13.3 6.7 56 4.6 ENE 7 11 - 6 - - 0.0
22/07:30pm 15.9 13.3 3.4 43 6.2 NNE 6 7 - 4 - - 0.0
22/07:00pm 15.6 12.6 4.3 47 5.7 SW 9 11 - 6 - - 0.0
22/06:30pm 16.8 14.4 5.4 47 6.0 SW 7 11 - 6 - - 0.0
22/06:00pm 18.3 15.7 4.1 39 7.3 SW 7 11 - 6 - - 0.0
22/05:30pm 19.4 16.5 4.7 38 7.7 WSW 9 15 - 8 - - 0.0
22/05:00pm 19.2 15.8 3.8 36 7.9 SW 11 17 - 9 - - 0.0
22/04:30pm 18.7 15.4 4.8 40 7.3 SW 11 20 - 11 - - 0.0
22/04:00pm 19.4 16.5 4.7 38 7.7 SSW 9 19 - 10 - - 0.0
22/03:30pm 18.4 14.1 3.5 37 7.6 WSW 15 22 - 12 - - 0.0
22/03:00pm 18.8 14.5 1.3 31 8.6 WSW 13 19 - 10 - - 0.0
22/02:30pm 18.7 14.8 3.3 36 7.8 WSW 13 24 - 13 - - 0.0
22/02:00pm 19.0 14.9 2.0 32 8.4 WSW 13 22 - 12 - - 0.0
22/01:30pm 18.6 14.3 3.3 36 7.8 WSW 15 24 - 13 - - 0.0
22/01:00pm 18.7 14.1 1.7 32 8.4 SW 15 24 - 13 - - 0.0
22/12:30pm 18.6 14.3 0.7 30 8.6 WSW 13 22 - 12 - - 0.0
22/12:00pm 18.1 13.3 0.3 30 8.5 WSW 15 24 - 13 - - 0.0
22/11:30am 17.5 13.7 1.5 34 7.8 W 11 20 - 11 - - 0.0
22/11:00am 16.5 12.8 2.5 39 6.9 WSW 11 19 - 10 - - 0.0
22/10:30am 16.1 12.2 1.0 36 7.2 WNW 11 19 - 10 - - 0.0
22/10:00am 15.6 12.3 2.7 42 6.3 W 9 15 - 8 - - 0.0
22/09:30am 14.5 10.9 2.7 45 5.8 W 11 22 - 12 - - 0.0
22/09:00am 13.5 9.5 3.0 49 5.1 WNW 13 20 - 11 - - 0.0
22/08:30am 12.4 8.5 3.4 54 4.4 WNW 13 20 - 11 - - 0.0
22/08:00am 11.6 8.2 3.9 59 3.8 NNW 11 20 - 11 - - 0.0
22/07:30am 11.2 7.7 3.7 60 3.6 NNW 11 19 - 10 - - 0.0
22/07:00am 10.7 7.2 3.5 61 3.5 NNW 11 19 - 10 - - 0.0
22/06:30am 10.6 7.0 2.9 59 3.7 NNW 11 22 - 12 - - 0.0
22/06:00am 10.7 7.1 2.8 58 3.7 NNW 11 17 - 9 - - 0.0
22/05:30am 10.8 7.0 1.9 54 4.1 NW 11 19 - 10 - - 0.0
22/05:00am 11.4 6.5 -3.1 36 6.1 W 13 19 - 10 - - 0.0
22/04:30am 11.6 6.7 -3.3 35 6.2 W 13 20 - 11 - - 0.0
22/04:00am 11.2 7.0 -0.6 44 5.2 WNW 11 19 - 10 - - 0.0
22/03:30am 11.2 7.0 -0.9 43 5.3 WNW 11 17 - 9 - - 0.0
22/03:00am 11.1 7.4 0.2 47 4.9 WNW 9 17 - 9 - - 0.0
22/02:30am 11.0 7.5 1.0 50 4.6 NNW 9 15 - 8 - - 0.0
22/02:00am 11.1 7.5 0.5 48 4.8 NNW 9 15 - 8 - - 0.0
22/01:30am 11.1 6.7 -2.3 39 5.7 N 11 17 - 9 - - 0.0
22/01:00am 10.8 7.1 0.2 48 4.8 N 9 19 - 10 - - 0.0
22/12:30am 10.9 7.7 3.0 58 3.8 N 9 15 - 8 - - 0.0
22/12:00am 11.5 7.7 1.5 50 4.6 N 11 17 - 9 - - 0.0
 
Date/Time
EDT
Temp
°C
App
Temp
°C
Dew
Point
Rel
Hum
%
Delta-T
°C
Wind Press
QNH
hPa
Press
MSL
hPa
Rain
since 9 am
mm
Dir
 
Spd
km/h
Gust
km/h
Spd
kts
Gust
kts
21/11:30pm 11.0 7.8 3.3 59 3.7 N 9 17 - 9 - - 0.0
21/11:00pm 10.6 7.3 4.7 67 2.9 N 11 17 - 9 - - 0.0
21/10:30pm 10.7 7.4 4.8 67 2.9 N 11 17 - 9 - - 0.0
21/10:00pm 10.8 7.7 3.8 62 3.4 NNE 9 15 - 8 - - 0.0
21/09:30pm 11.1 7.8 4.3 63 3.3 N 11 15 - 8 - - 0.0
21/09:00pm 11.2 8.0 4.9 65 3.1 N 11 17 - 9 - - 0.0
21/08:30pm 11.6 9.0 6.3 70 2.7 NNW 9 15 - 8 - - 0.0
21/08:00pm 11.8 9.6 7.7 76 2.2 NNE 9 15 - 8 - - 0.0
21/07:30pm 12.5 10.1 7.0 69 2.9 N 9 15 - 8 - - 0.0
21/07:00pm 13.4 11.0 7.2 66 3.3 N 9 17 - 9 - - 0.0
21/06:30pm 14.4 12.6 7.2 62 3.8 N 6 11 - 6 - - 0.0
21/06:00pm 15.6 14.0 8.8 64 3.8 NNW 7 15 - 8 - - 0.0
21/05:30pm 16.1 14.6 8.6 61 4.2 WNW 6 9 - 5 - - 0.0
21/05:00pm 16.2 14.4 7.9 58 4.5 W 7 13 - 7 - - 0.0
21/04:30pm 15.9 14.3 8.6 62 4.0 W 7 13 - 7 - - 0.0
21/04:00pm 16.4 14.9 9.3 63 4.0 SSW 7 13 - 7 - - 0.0
21/03:30pm 16.2 14.3 8.9 62 4.1 WSW 9 13 - 7 - - 0.0
21/03:00pm 16.1 14.6 10.6 70 3.2 SSW 9 15 - 8 - - 0.0
21/02:30pm 15.0 13.8 9.4 69 3.1 SSW 6 9 - 5 - - 0.0
21/02:00pm 16.4 15.1 9.8 65 3.7 S 7 13 - 7 - - 0.0
21/01:30pm 15.7 14.3 8.7 63 3.9 S 6 11 - 6 - - 0.0
21/01:00pm 15.2 13.8 8.9 66 3.5 SSE 6 7 - 4 - - 0.0
21/12:30pm 15.1 14.0 8.3 64 3.7 SE 4 7 - 4 - - 0.0
21/12:00pm 14.4 12.7 8.4 67 3.3 SSW 7 13 - 7 - - 0.0
21/11:30am 14.8 13.2 8.7 67 3.4 S 7 11 - 6 - - 0.0
21/11:00am 15.5 13.6 6.8 56 4.6 SSW 6 11 - 6 - - 0.0
21/10:30am 15.3 12.9 4.1 47 5.7 SSW 6 9 - 5 - - 0.0
21/10:00am 13.9 11.2 2.8 47 5.4 N 6 9 - 5 - - 0.0
21/09:30am 12.2 9.2 1.8 49 4.9 WNW 7 11 - 6 - - 0.0
21/09:00am 11.1 8.5 3.4 59 3.7 NW 6 9 - 5 - - 0.0
21/08:30am 10.2 7.7 3.7 64 3.1 N 6 9 - 5 - - 0.0
21/08:00am 9.7 7.0 3.9 67 2.8 N 7 11 - 6 - - 0.0
21/07:30am 9.3 5.8 1.0 56 3.7 N 9 13 - 7 - - 0.0
21/07:00am 8.3 5.2 3.4 71 2.3 N 9 13 - 7 - - 0.0
21/06:30am 7.6 4.6 4.2 79 1.6 N 9 15 - 8 - - 0.0
21/06:00am 7.5 4.6 4.5 81 1.4 NNE 9 15 - 8 - - 0.0
21/05:30am 7.6 4.4 3.3 74 2.0 NNE 9 15 - 8 - - 0.0
21/05:00am 8.3 5.0 2.5 67 2.7 N 9 17 - 9 - - 0.0
21/04:30am 8.7 5.3 1.8 62 3.2 NNE 9 15 - 8 - - 0.0
21/04:00am 9.1 5.3 -0.8 50 4.3 NE 9 17 - 9 - - 0.0
21/03:30am 9.5 5.5 -5.9 33 5.9 NNE 7 11 - 6 - - 0.0
21/03:00am 11.0 5.8 -32.5 3 9.6 NE 7 9 - 5 - - 0.0
21/02:30am 10.7 5.1 -32.7 3 9.5 NE 9 13 - 7 - - 0.0
21/02:00am 10.6 5.1 -29.8 4 9.3 NE 9 15 - 8 - - 0.0
21/01:30am 9.4 3.9 -26.3 6 8.6 NE 9 15 - 8 - - 0.0
21/01:00am 8.6 2.8 -23.8 8 8.2 NE 11 20 - 11 - - 0.0
21/12:30am 7.8 2.2 -18.9 13 7.4 NE 11 20 - 11 - - 0.0
21/12:00am 7.4 1.5 -16.7 16 7.0 NE 13 20 - 11 - - 0.0
 
Date/Time
EDT
Temp
°C
App
Temp
°C
Dew
Point
Rel
Hum
%
Delta-T
°C
Wind Press
QNH
hPa
Press
MSL
hPa
Rain
since 9 am
mm
Dir
 
Spd
km/h
Gust
km/h
Spd
kts
Gust
kts
20/11:30pm 6.8 1.1 -12.8 23 6.2 NE 13 22 - 12 - - 0.0
20/11:00pm 6.4 0.7 -12.2 25 5.9 NE 13 19 - 10 - - 0.0
20/10:30pm 5.3 0.4 -6.9 41 4.4 NE 11 19 - 10 - - 0.0
20/10:00pm 5.8 1.2 -7.4 38 4.7 NE 9 15 - 8 - - 0.0
20/09:30pm 4.9 0.6 -1.3 64 2.5 NE 11 17 - 9 - - 0.0
20/09:00pm 3.8 0.0 2.0 88 0.8 NE 11 17 - 9 - - 0.0
20/08:30pm 2.6 -1.7 1.0 89 0.7 NE 13 19 - 10 - - 0.0
20/08:00pm 3.2 -1.2 0.4 82 1.2 ENE 13 20 - 11 - - 0.0

Other Formats:

Comma delimited format used in spreadsheet applications
http://www.bom.gov.au/fwo/IDV60801/IDV60801.95901.axf

JavaScript Object Notation format (JSON) in row-major order
http://www.bom.gov.au/fwo/IDV60801/IDV60801.95901.json